Time;durP1;ratioP1;P1;durP2;ratioP2;P2;SDS_P1;SDS_P2;PMS_P1;PMS_P2;Temp;Humidity;BMP_temperature;BMP_pressure;BME280_temperature;BME280_humidity;BME280_pressure;Samples;Min_cycle;Max_cycle;Signal;HPM_P1;HPM_P2
2022/09/02 00:02:40;;;;;;;1.48;1.38;;;24.10;50.90;;;;;;6142735;28;80678;-62
2022/09/02 00:05:41;;;;;;;1.38;1.10;;;24.10;50.90;;;;;;6151208;28;80914;-63
2022/09/02 00:08:41;;;;;;;1.58;1.15;;;24.10;50.90;;;;;;6150679;28;80259;-63
2022/09/02 00:11:42;;;;;;;2.05;1.45;;;24.10;50.90;;;;;;6137395;28;80257;-62
2022/09/02 00:14:42;;;;;;;3.17;1.70;;;24.10;50.90;;;;;;6134865;28;80725;-62
2022/09/02 00:17:43;;;;;;;4.05;1.42;;;24.00;50.90;;;;;;6128018;28;81726;-63
2022/09/02 00:20:43;;;;;;;1.92;1.40;;;24.10;51.00;;;;;;6128829;28;80492;-59
2022/09/02 00:23:44;;;;;;;1.50;1.40;;;24.10;51.00;;;;;;6135146;28;84517;-59
2022/09/02 00:26:44;;;;;;;1.80;1.38;;;24.00;51.00;;;;;;6137447;28;80470;-59
2022/09/02 00:29:45;;;;;;;1.10;1.00;;;24.00;51.10;;;;;;6138393;28;87431;-59
2022/09/02 00:32:46;;;;;;;2.25;1.95;;;24.00;51.10;;;;;;6139338;28;80351;-58
2022/09/02 00:35:46;;;;;;;2.45;1.25;;;24.00;51.10;;;;;;6143169;28;84897;-59
2022/09/02 00:38:47;;;;;;;2.72;1.30;;;24.00;51.10;;;;;;6142009;28;80480;-58
2022/09/02 00:41:47;;;;;;;2.35;1.25;;;24.00;51.10;;;;;;6148107;28;82268;-57
2022/09/02 00:44:48;;;;;;;4.75;1.70;;;24.00;51.10;;;;;;6141574;28;81604;-56
2022/09/02 00:47:50;;;;;;;4.00;1.10;;;24.00;51.20;;;;;;6157678;28;83857;-55
2022/09/02 00:50:51;;;;;;;1.30;1.10;;;24.00;51.20;;;;;;6135355;28;80816;-55
2022/09/02 00:53:51;;;;;;;2.40;1.58;;;24.00;51.20;;;;;;6145381;28;80420;-56
2022/09/02 00:56:52;;;;;;;1.27;1.05;;;24.00;51.20;;;;;;6154831;28;84562;-60
2022/09/02 00:59:52;;;;;;;3.28;1.23;;;24.00;51.20;;;;;;6147678;28;80762;-59
2022/09/02 01:02:53;;;;;;;1.30;1.00;;;24.00;51.20;;;;;;6153589;28;81716;-59
2022/09/02 01:05:53;;;;;;;1.63;1.20;;;24.00;51.20;;;;;;6163803;28;83077;-59
2022/09/02 01:08:55;;;;;;;2.63;1.35;;;24.00;51.20;;;;;;6145056;28;83263;-59
2022/09/02 01:11:57;;;;;;;2.30;1.33;;;24.00;51.20;;;;;;6137036;28;80868;-59
2022/09/02 01:14:58;;;;;;;3.80;1.75;;;24.00;51.20;;;;;;6132689;28;80828;-57
2022/09/02 01:17:58;;;;;;;5.93;1.60;;;24.00;51.10;;;;;;6134691;28;83283;-57
2022/09/02 01:20:59;;;;;;;1.88;1.05;;;24.00;51.10;;;;;;6143129;28;80112;-57
2022/09/02 01:24:00;;;;;;;2.08;1.30;;;24.00;51.20;;;;;;6150999;28;80751;-57
2022/09/02 01:27:00;;;;;;;1.42;1.08;;;23.90;51.20;;;;;;6144691;28;80214;-57
2022/09/02 01:30:01;;;;;;;2.80;1.35;;;24.00;51.20;;;;;;6125415;28;80781;-57
2022/09/02 01:33:01;;;;;;;1.85;1.30;;;24.00;51.20;;;;;;6117485;28;87423;-57
2022/09/02 01:36:03;;;;;;;1.95;1.20;;;24.00;51.20;;;;;;6130024;28;81005;-56
2022/09/02 01:39:03;;;;;;;2.13;1.30;;;24.00;51.20;;;;;;6147514;28;80346;-56
2022/09/02 01:42:04;;;;;;;1.73;1.13;;;24.00;51.20;;;;;;6130968;28;82210;-58
2022/09/02 01:45:05;;;;;;;2.92;1.35;;;24.00;51.20;;;;;;6140928;28;81688;-56
2022/09/02 01:48:06;;;;;;;2.05;1.40;;;23.90;51.10;;;;;;6140090;28;82753;-57
2022/09/02 01:51:06;;;;;;;2.55;1.27;;;24.00;51.30;;;;;;6162757;28;83264;-55
2022/09/02 01:54:07;;;;;;;1.48;1.27;;;23.90;51.20;;;;;;6128706;28;81366;-56
2022/09/02 01:57:08;;;;;;;2.45;1.63;;;23.90;51.20;;;;;;6148534;28;84703;-54
2022/09/02 02:00:08;;;;;;;1.50;1.40;;;23.90;51.20;;;;;;6140710;28;81601;-55
2022/09/02 02:03:12;;;;;;;3.30;1.58;;;23.90;51.20;;;;;;6132411;28;80714;-55
2022/09/02 02:06:13;;;;;;;2.25;1.58;;;24.00;51.20;;;;;;6151917;28;81645;-57
2022/09/02 02:09:16;;;;;;;1.90;1.60;;;23.90;51.30;;;;;;6153245;28;80646;-61
2022/09/02 02:12:18;;;;;;;14.88;2.10;;;23.90;51.20;;;;;;6164352;28;83181;-64
2022/09/02 02:15:19;;;;;;;4.55;1.58;;;23.90;51.30;;;;;;6146741;28;80286;-63
2022/09/02 02:18:19;;;;;;;4.15;1.63;;;24.00;51.30;;;;;;6129422;28;87191;-62
2022/09/02 02:21:20;;;;;;;1.85;1.45;;;24.00;51.40;;;;;;6124253;28;80522;-62
2022/09/02 02:24:20;;;;;;;4.32;2.13;;;24.00;51.30;;;;;;6143012;28;83073;-62
2022/09/02 02:27:21;;;;;;;1.75;1.40;;;24.00;51.30;;;;;;6134861;28;80887;-62
2022/09/02 02:30:22;;;;;;;2.25;1.60;;;23.90;51.20;;;;;;6140798;28;83117;-61
2022/09/02 02:33:23;;;;;;;7.20;1.35;;;23.90;51.00;;;;;;6155933;28;83397;-61
2022/09/02 02:36:24;;;;;;;2.13;1.38;;;23.90;51.20;;;;;;6153268;28;80318;-61
2022/09/02 02:39:24;;;;;;;2.58;1.50;;;23.90;51.20;;;;;;6152255;28;82412;-61
2022/09/02 02:42:25;;;;;;;4.80;1.60;;;23.90;51.10;;;;;;6141734;28;80399;-61
2022/09/02 02:45:26;;;;;;;2.72;1.45;;;23.90;51.10;;;;;;6141103;28;80457;-61
2022/09/02 02:48:26;;;;;;;1.67;1.30;;;23.90;51.10;;;;;;6145972;28;83262;-61
2022/09/02 02:51:27;;;;;;;2.60;1.23;;;23.90;51.10;;;;;;6137543;28;83537;-61
2022/09/02 02:54:29;;;;;;;4.15;2.03;;;23.90;51.20;;;;;;6143594;28;82846;-61
2022/09/02 02:57:33;;;;;;;3.65;1.40;;;23.80;51.00;;;;;;6145398;28;83094;-61
2022/09/02 03:00:33;;;;;;;2.00;1.60;;;23.80;51.10;;;;;;6164098;28;87085;-62
2022/09/02 03:03:34;;;;;;;2.72;1.63;;;23.80;51.00;;;;;;6137494;28;80495;-60
2022/09/02 03:06:35;;;;;;;3.50;1.50;;;23.80;51.00;;;;;;6131205;28;80406;-60
2022/09/02 03:09:36;;;;;;;2.33;1.52;;;23.90;51.00;;;;;;6147114;28;84861;-62
2022/09/02 03:12:39;;;;;;;7.50;1.95;;;23.80;50.90;;;;;;6143018;28;81400;-60
2022/09/02 03:15:40;;;;;;;3.13;1.88;;;23.80;51.00;;;;;;6143693;28;80604;-60
2022/09/02 03:18:41;;;;;;;1.60;1.35;;;23.80;51.20;;;;;;6137095;28;80244;-61
2022/09/02 03:21:42;;;;;;;4.18;1.40;;;23.80;51.10;;;;;;6150543;28;81549;-60
2022/09/02 03:24:44;;;;;;;1.20;1.10;;;23.80;51.10;;;;;;6152464;28;83033;-63
2022/09/02 03:27:46;;;;;;;3.97;1.98;;;23.80;51.20;;;;;;6150400;28;83572;-63
2022/09/02 03:30:48;;;;;;;3.90;1.75;;;23.90;51.20;;;;;;6146216;28;87767;-63
2022/09/02 03:33:50;;;;;;;2.58;1.67;;;23.90;51.30;;;;;;6136227;28;82702;-63
2022/09/02 03:36:52;;;;;;;2.78;1.80;;;23.90;51.20;;;;;;6110633;28;86544;-62
2022/09/02 03:39:53;;;;;;;3.13;1.45;;;23.90;51.40;;;;;;6115666;28;80487;-62
2022/09/02 03:42:55;;;;;;;2.92;1.48;;;23.90;51.20;;;;;;6130363;28;81465;-64
2022/09/02 03:45:56;;;;;;;2.60;1.85;;;23.80;51.10;;;;;;6119170;28;83600;-65
2022/09/02 03:48:57;;;;;;;7.05;1.90;;;23.80;51.20;;;;;;6130000;28;82928;-63
2022/09/02 03:51:57;;;;;;;2.40;1.75;;;23.80;51.20;;;;;;6109168;28;80759;-63
2022/09/02 03:54:58;;;;;;;15.15;1.40;;;23.80;51.20;;;;;;6114819;28;81577;-62
2022/09/02 03:57:59;;;;;;;8.25;1.85;;;23.80;51.20;;;;;;6130030;28;83612;-62
2022/09/02 04:01:00;;;;;;;3.97;1.70;;;23.80;51.30;;;;;;6123860;28;83269;-58
2022/09/02 04:04:00;;;;;;;2.05;1.65;;;23.70;51.40;;;;;;6141745;28;83220;-58
2022/09/02 04:07:01;;;;;;;1.60;1.50;;;23.80;51.50;;;;;;6126586;28;80433;-61
2022/09/02 04:10:02;;;;;;;3.38;2.10;;;23.80;51.40;;;;;;6141899;28;81499;-58
2022/09/02 04:13:03;;;;;;;4.32;1.83;;;23.80;51.60;;;;;;6120820;28;83458;-63
2022/09/02 04:16:05;;;;;;;6.03;2.10;;;23.80;51.70;;;;;;6126340;28;82767;-58
2022/09/02 04:19:07;;;;;;;3.65;1.70;;;23.90;51.70;;;;;;6128556;28;80225;-61
2022/09/02 04:22:08;;;;;;;7.97;1.88;;;23.90;51.70;;;;;;6127110;28;87330;-59
2022/09/02 04:25:09;;;;;;;3.33;2.03;;;23.80;52.00;;;;;;6153670;28;81259;-59
2022/09/02 04:28:11;;;;;;;3.55;2.15;;;23.90;52.10;;;;;;6114783;28;81530;-58
2022/09/02 04:31:13;;;;;;;6.03;2.35;;;23.90;52.00;;;;;;6120788;28;83384;-58
2022/09/02 04:34:14;;;;;;;11.70;2.13;;;23.90;52.10;;;;;;6129187;28;82963;-62
2022/09/02 04:37:16;;;;;;;3.80;2.47;;;23.90;52.20;;;;;;6143128;28;83480;-58
2022/09/02 04:40:17;;;;;;;7.15;2.35;;;23.90;52.20;;;;;;6124351;28;84052;-60
2022/09/02 04:43:18;;;;;;;26.63;2.55;;;23.90;52.10;;;;;;6139959;28;83461;-57
2022/09/02 04:46:19;;;;;;;7.65;2.38;;;24.00;52.40;;;;;;6131240;28;83443;-58
2022/09/02 04:49:20;;;;;;;10.50;3.38;;;24.00;52.40;;;;;;6095862;28;82887;-56
2022/09/02 04:52:24;;;;;;;21.95;2.35;;;23.90;52.20;;;;;;6119828;28;82707;-58
2022/09/02 04:55:25;;;;;;;6.88;2.05;;;23.90;52.40;;;;;;6106917;28;83489;-57
2022/09/02 04:58:27;;;;;;;6.85;2.50;;;23.90;52.60;;;;;;6137327;28;82063;-56
2022/09/02 05:01:29;;;;;;;5.32;2.28;;;23.90;52.20;;;;;;6108962;28;83807;-55
2022/09/02 05:04:32;;;;;;;7.32;2.17;;;23.90;52.30;;;;;;6111877;28;83671;-56
2022/09/02 05:07:34;;;;;;;7.45;2.67;;;23.90;52.20;;;;;;6099419;28;83658;-55
2022/09/02 05:10:35;;;;;;;4.45;2.15;;;23.90;52.00;;;;;;6111784;28;83335;-57
2022/09/02 05:13:36;;;;;;;5.40;2.40;;;23.90;51.70;;;;;;6119896;28;82348;-58
2022/09/02 05:16:37;;;;;;;3.50;2.33;;;23.90;51.60;;;;;;6133526;28;81634;-58
2022/09/02 05:19:41;;;;;;;3.72;1.95;;;23.90;51.30;;;;;;6136672;28;83095;-58
2022/09/02 05:22:43;;;;;;;3.17;2.30;;;23.90;51.30;;;;;;6153958;28;83842;-57
2022/09/02 05:25:44;;;;;;;9.57;2.55;;;23.80;51.50;;;;;;6151819;28;83297;-57
2022/09/02 05:28:45;;;;;;;4.60;2.30;;;23.80;51.40;;;;;;6135987;28;82733;-58
2022/09/02 05:31:46;;;;;;;4.47;1.88;;;23.80;51.40;;;;;;6139119;28;83512;-63
2022/09/02 05:34:47;;;;;;;6.18;1.95;;;23.80;51.10;;;;;;6135870;28;83560;-66
2022/09/02 05:37:48;;;;;;;3.60;2.10;;;23.80;51.10;;;;;;6144127;28;82626;-66
2022/09/02 05:40:49;;;;;;;3.40;2.33;;;23.80;51.20;;;;;;6132414;28;80739;-66
2022/09/02 05:43:50;;;;;;;4.03;2.38;;;23.80;51.10;;;;;;6137599;28;81780;-66
2022/09/02 05:46:50;;;;;;;7.30;2.03;;;23.80;51.00;;;;;;6136227;28;83086;-65
2022/09/02 05:49:51;;;;;;;4.60;2.00;;;23.80;51.10;;;;;;6134630;28;81512;-59
2022/09/02 05:52:52;;;;;;;3.58;2.10;;;23.80;50.80;;;;;;6122644;28;83415;-59
2022/09/02 05:55:54;;;;;;;4.88;2.08;;;23.80;50.90;;;;;;6123267;28;82087;-59
2022/09/02 05:58:56;;;;;;;3.63;1.90;;;23.70;50.60;;;;;;6072677;28;83102;-60
2022/09/02 06:01:56;;;;;;;3.05;1.70;;;23.80;50.50;;;;;;6106904;28;80753;-60
2022/09/02 06:04:57;;;;;;;3.78;2.10;;;23.80;50.20;;;;;;6125506;28;82141;-59
2022/09/02 06:07:59;;;;;;;4.05;1.73;;;23.70;49.80;;;;;;6105889;28;83324;-64
2022/09/02 06:11:00;;;;;;;10.80;2.30;;;23.70;49.80;;;;;;6112729;28;81795;-65
2022/09/02 06:14:04;;;;;;;2.85;1.80;;;23.70;49.90;;;;;;6146147;28;83171;-64
2022/09/02 06:17:08;;;;;;;4.95;1.88;;;23.70;50.60;;;;;;6125639;28;82808;-63
2022/09/02 06:20:14;;;;;;;;;;;23.70;51.60;;;;;;6137295;28;81871;-64
2022/09/02 06:23:16;;;;;;;3.83;2.10;;;23.80;52.30;;;;;;6145182;28;82890;-64
2022/09/02 06:26:18;;;;;;;5.53;2.20;;;23.70;52.20;;;;;;6110644;28;82721;-63
2022/09/02 06:29:19;;;;;;;4.40;2.15;;;23.60;51.50;;;;;;6115838;28;81225;-61
2022/09/02 06:32:21;;;;;;;3.88;2.10;;;23.50;48.80;;;;;;6135986;28;83765;-63
2022/09/02 06:35:24;;;;;;;3.72;1.90;;;23.40;48.40;;;;;;6137004;28;83396;-65
2022/09/02 06:38:25;;;;;;;6.30;2.53;;;23.30;48.20;;;;;;6123882;28;83620;-64
2022/09/02 06:41:27;;;;;;;4.03;2.10;;;23.30;47.90;;;;;;6125389;28;82985;-64
2022/09/02 06:44:29;;;;;;;5.72;2.78;;;23.20;48.00;;;;;;6115306;28;83866;-63
2022/09/02 06:47:30;;;;;;;5.65;2.45;;;23.20;48.10;;;;;;6135771;28;81326;-56
2022/09/02 06:50:31;;;;;;;4.50;2.28;;;23.10;48.30;;;;;;6138952;28;83632;-58
2022/09/02 06:53:31;;;;;;;9.55;3.83;;;23.10;48.50;;;;;;6130712;28;81655;-59
2022/09/02 06:56:32;;;;;;;6.10;2.78;;;23.10;48.50;;;;;;6144017;28;82061;-58
2022/09/02 06:59:33;;;;;;;8.85;2.85;;;23.10;49.40;;;;;;6141471;28;80236;-58
2022/09/02 07:02:34;;;;;;;5.43;2.80;;;23.10;48.80;;;;;;6127863;28;87589;-59
2022/09/02 07:05:35;;;;;;;7.18;2.33;;;23.10;49.00;;;;;;6124730;28;82133;-58
2022/09/02 07:08:36;;;;;;;8.43;2.28;;;23.00;49.00;;;;;;6129982;28;83528;-59
2022/09/02 07:11:36;;;;;;;3.13;2.08;;;23.00;49.30;;;;;;6146839;28;81376;-58
2022/09/02 07:14:37;;;;;;;6.45;2.67;;;23.00;49.50;;;;;;6136704;28;81989;-58
2022/09/02 07:17:37;;;;;;;4.35;2.17;;;23.00;49.50;;;;;;6109210;28;83146;-60
2022/09/02 07:20:42;;;;;;;15.88;2.70;;;22.90;49.50;;;;;;6093612;28;81622;-59
2022/09/02 07:23:42;;;;;;;7.32;2.60;;;22.90;49.50;;;;;;6108867;28;82200;-59
2022/09/02 07:26:44;;;;;;;4.50;2.40;;;22.90;49.50;;;;;;6112163;28;83244;-59
2022/09/02 07:29:47;;;;;;;4.95;2.38;;;22.90;49.80;;;;;;6097272;28;80362;-59
2022/09/02 07:32:48;;;;;;;3.03;1.83;;;23.00;49.60;;;;;;6121282;28;82761;-59
2022/09/02 07:35:51;;;;;;;4.45;2.53;;;22.90;49.60;;;;;;6126077;28;80751;-60
2022/09/02 07:38:53;;;;;;;4.07;2.00;;;23.00;49.30;;;;;;6118167;28;83909;-59
2022/09/02 07:41:55;;;;;;;3.40;1.98;;;23.00;49.20;;;;;;6129530;28;83348;-59
2022/09/02 07:44:56;;;;;;;4.25;2.63;;;23.00;49.60;;;;;;6126708;28;81446;-60
2022/09/02 07:47:57;;;;;;;3.90;2.03;;;22.90;49.40;;;;;;6124781;28;84055;-58
2022/09/02 07:50:58;;;;;;;6.47;2.17;;;22.90;49.60;;;;;;6105183;28;83240;-59
2022/09/02 07:54:01;;;;;;;2.95;2.00;;;22.90;49.30;;;;;;6130472;28;83081;-60
2022/09/02 07:57:01;;;;;;;13.27;2.28;;;22.90;49.10;;;;;;6140671;28;83456;-60
2022/09/02 08:00:02;;;;;;;5.70;2.42;;;22.90;49.50;;;;;;6129528;28;83453;-59
2022/09/02 08:03:03;;;;;;;5.45;2.08;;;22.90;49.40;;;;;;6117162;28;84575;-59
2022/09/02 08:06:12;;;;;;;4.20;2.17;;;22.90;49.50;;;;;;6108826;28;83356;-60
2022/09/02 08:09:13;;;;;;;3.03;1.58;;;22.90;49.60;;;;;;6111750;28;80505;-60
2022/09/02 08:12:13;;;;;;;6.20;2.50;;;23.00;49.30;;;;;;6113586;28;85714;-59
2022/09/02 08:15:14;;;;;;;7.78;2.40;;;23.00;49.40;;;;;;6122297;28;80746;-60
2022/09/02 08:18:14;;;;;;;6.72;2.08;;;23.10;49.40;;;;;;6107751;28;80388;-61
2022/09/02 08:21:15;;;;;;;5.93;1.92;;;23.10;49.20;;;;;;6111729;28;80464;-61
2022/09/02 08:24:15;;;;;;;2.80;1.80;;;23.10;49.30;;;;;;6101397;28;83068;-61
2022/09/02 08:27:16;;;;;;;7.10;2.30;;;23.10;49.90;;;;;;6120929;28;80231;-59
2022/09/02 08:30:17;;;;;;;3.40;1.83;;;22.90;50.30;;;;;;6121195;28;82389;-59
2022/09/02 08:33:17;;;;;;;4.30;1.98;;;23.00;49.90;;;;;;6119206;28;81336;-59
2022/09/02 08:36:19;;;;;;;4.40;2.03;;;23.10;49.60;;;;;;6117455;28;81021;-59
2022/09/02 08:39:20;;;;;;;7.38;2.38;;;23.10;49.70;;;;;;6130086;28;81010;-59
2022/09/02 08:42:20;;;;;;;1.77;1.63;;;23.10;49.30;;;;;;6123114;28;86516;-59
2022/09/02 08:45:21;;;;;;;3.13;1.95;;;23.10;49.20;;;;;;6128185;28;80898;-59
2022/09/02 08:48:21;;;;;;;4.40;2.05;;;23.10;49.00;;;;;;6113077;28;81445;-60
2022/09/02 08:51:22;;;;;;;3.15;2.10;;;23.10;50.10;;;;;;6121661;28;80456;-59
2022/09/02 08:54:22;;;;;;;3.35;1.92;;;23.10;49.90;;;;;;6125523;28;80784;-57
2022/09/02 08:57:25;;;;;;;4.65;1.52;;;23.10;49.10;;;;;;6123731;28;83376;-57
2022/09/02 09:00:25;;;;;;;2.72;1.30;;;23.10;48.70;;;;;;6117534;28;80451;-58
2022/09/02 09:03:26;;;;;;;7.20;1.65;;;22.90;48.50;;;;;;6124344;28;83776;-57
2022/09/02 09:06:26;;;;;;;4.28;1.70;;;22.90;48.50;;;;;;6118853;28;80193;-57
2022/09/02 09:09:27;;;;;;;4.07;1.85;;;22.90;49.10;;;;;;6128715;28;82222;-57
2022/09/02 09:12:27;;;;;;;12.75;2.08;;;23.00;48.40;;;;;;6112895;28;81015;-58
2022/09/02 09:15:28;;;;;;;4.47;1.88;;;23.00;48.30;;;;;;6113307;28;81060;-57
2022/09/02 09:18:28;;;;;;;2.28;1.27;;;23.00;48.10;;;;;;6101917;28;80418;-57
2022/09/02 09:21:29;;;;;;;4.97;1.35;;;23.00;47.00;;;;;;6113110;28;81407;-60
2022/09/02 09:24:30;;;;;;;3.42;1.30;;;22.90;47.00;;;;;;6109165;28;81438;-58
2022/09/02 09:27:30;;;;;;;2.13;1.38;;;23.00;47.40;;;;;;6115352;28;80335;-58
2022/09/02 09:30:31;;;;;;;2.45;1.10;;;23.00;46.50;;;;;;6121415;28;80382;-57
2022/09/02 09:33:31;;;;;;;1.38;1.20;;;22.90;46.20;;;;;;6122849;28;80293;-57
2022/09/02 09:36:32;;;;;;;3.55;1.92;;;23.00;46.30;;;;;;6124115;28;83501;-57
2022/09/02 09:39:32;;;;;;;3.13;1.13;;;23.00;46.30;;;;;;6124038;28;80428;-58
2022/09/02 09:42:33;;;;;;;4.93;1.45;;;22.90;46.40;;;;;;6126944;28;85116;-57
2022/09/02 09:45:33;;;;;;;6.78;1.75;;;22.80;46.20;;;;;;6109729;28;80459;-57
2022/09/02 09:48:37;;;;;;;1.90;1.10;;;22.80;46.40;;;;;;6130685;28;82662;-59
2022/09/02 09:51:38;;;;;;;1.67;1.20;;;22.90;46.00;;;;;;6062858;28;83578;-58
2022/09/02 09:54:39;;;;;;;3.67;1.77;;;22.80;46.10;;;;;;6126531;28;80817;-58
2022/09/02 09:57:39;;;;;;;6.68;1.50;;;22.80;45.90;;;;;;6151507;28;83492;-58
2022/09/02 10:00:40;;;;;;;2.42;1.20;;;22.80;45.70;;;;;;6134774;28;80844;-58
2022/09/02 10:03:40;;;;;;;3.28;1.40;;;22.80;45.30;;;;;;6125650;28;81635;-57
2022/09/02 10:06:41;;;;;;;4.72;1.35;;;22.80;45.60;;;;;;6122517;28;81146;-57
2022/09/02 10:09:41;;;;;;;2.05;1.40;;;22.90;45.90;;;;;;6122643;28;80371;-57
2022/09/02 10:12:42;;;;;;;2.17;1.35;;;22.90;45.80;;;;;;6124001;28;81088;-57
2022/09/02 10:15:42;;;;;;;1.15;1.10;;;22.90;45.80;;;;;;6128892;28;80661;-58
2022/09/02 10:18:43;;;;;;;1.90;1.23;;;23.00;46.30;;;;;;6139708;28;80663;-57
2022/09/02 10:21:44;;;;;;;4.10;2.08;;;23.10;45.90;;;;;;6145098;28;80420;-58
2022/09/02 10:24:44;;;;;;;2.10;1.23;;;23.10;45.60;;;;;;6139914;28;80586;-57
2022/09/02 10:27:45;;;;;;;1.45;1.00;;;23.20;45.00;;;;;;6119194;28;80567;-58
2022/09/02 10:30:45;;;;;;;3.15;1.13;;;23.20;45.20;;;;;;6122121;28;80468;-58
2022/09/02 10:33:46;;;;;;;1.27;1.05;;;23.10;44.20;;;;;;6118396;28;80526;-57
2022/09/02 10:36:46;;;;;;;2.42;1.20;;;23.20;44.10;;;;;;6122041;28;81610;-57
2022/09/02 10:39:47;;;;;;;1.30;1.20;;;23.20;44.60;;;;;;6124789;28;80117;-57
2022/09/02 10:42:47;;;;;;;5.38;1.73;;;23.30;44.30;;;;;;6134866;28;80496;-58
2022/09/02 10:45:49;;;;;;;1.80;1.08;;;23.30;44.40;;;;;;6150333;28;80952;-57
2022/09/02 10:48:50;;;;;;;1.85;1.35;;;23.40;44.10;;;;;;6129097;28;81785;-57
2022/09/02 10:51:50;;;;;;;5.43;1.38;;;23.40;43.60;;;;;;6131453;28;85403;-58
2022/09/02 10:54:51;;;;;;;1.30;0.98;;;23.30;43.80;;;;;;6144348;28;84023;-57
2022/09/02 10:57:51;;;;;;;1.67;1.23;;;23.40;43.70;;;;;;6145501;28;80578;-57
2022/09/02 11:00:53;;;;;;;2.88;1.13;;;23.40;42.80;;;;;;6148464;28;82045;-58
2022/09/02 11:03:54;;;;;;;1.55;1.05;;;23.30;43.10;;;;;;6135742;28;80124;-58
2022/09/02 11:06:54;;;;;;;2.13;0.90;;;23.20;42.90;;;;;;6134238;28;82379;-58
2022/09/02 11:09:55;;;;;;;1.55;1.08;;;23.10;42.70;;;;;;6087593;28;80633;-57
2022/09/02 11:12:55;;;;;;;1.88;0.98;;;23.10;43.30;;;;;;6106066;28;83586;-58
2022/09/02 11:15:56;;;;;;;2.10;1.45;;;23.20;43.00;;;;;;6115561;28;80310;-58
2022/09/02 11:18:57;;;;;;;2.78;1.05;;;23.20;42.60;;;;;;6119889;28;80989;-58
2022/09/02 11:21:58;;;;;;;6.32;2.03;;;23.20;41.80;;;;;;6122682;28;80871;-58
2022/09/02 11:24:59;;;;;;;3.58;1.70;;;23.10;41.80;;;;;;6117774;28;80970;-59
2022/09/02 11:27:59;;;;;;;3.55;1.00;;;23.10;42.00;;;;;;6036555;28;83113;-58
2022/09/02 11:31:00;;;;;;;3.35;1.23;;;23.30;42.90;;;;;;6083569;28;81931;-58
2022/09/02 11:34:01;;;;;;;5.78;1.40;;;23.40;42.80;;;;;;6115724;28;80948;-59
2022/09/02 11:37:01;;;;;;;1.98;1.02;;;23.40;42.60;;;;;;6113016;28;81550;-59
2022/09/02 11:40:02;;;;;;;3.80;1.15;;;23.60;43.10;;;;;;6127113;28;81456;-60
2022/09/02 11:43:02;;;;;;;1.10;0.93;;;23.60;41.40;;;;;;6131656;28;80222;-60
2022/09/02 11:46:03;;;;;;;1.33;1.08;;;23.50;40.80;;;;;;6127922;28;80720;-62
2022/09/02 11:49:04;;;;;;;3.75;1.60;;;23.40;40.50;;;;;;6123186;28;80150;-59
2022/09/02 11:52:05;;;;;;;2.67;1.00;;;23.50;41.10;;;;;;6101755;28;81003;-59
2022/09/02 11:55:05;;;;;;;3.45;1.08;;;23.40;40.90;;;;;;6111370;28;83866;-60
2022/09/02 11:58:06;;;;;;;2.80;1.20;;;23.40;40.80;;;;;;6119560;28;82828;-58
2022/09/02 12:01:06;;;;;;;1.05;0.95;;;23.30;40.80;;;;;;6117071;28;80587;-58
2022/09/02 12:04:07;;;;;;;1.40;1.20;;;23.30;41.00;;;;;;6111709;28;80305;-59
2022/09/02 12:07:07;;;;;;;1.58;1.15;;;23.30;41.30;;;;;;6103630;28;81092;-58
2022/09/02 12:10:09;;;;;;;1.35;1.10;;;23.30;41.10;;;;;;6114063;28;81002;-58
2022/09/02 12:13:11;;;;;;;2.42;1.30;;;23.40;41.50;;;;;;6115280;28;80752;-59
2022/09/02 12:16:11;;;;;;;3.85;1.60;;;23.40;42.00;;;;;;6115010;28;81176;-58
2022/09/02 12:19:12;;;;;;;2.80;1.30;;;23.40;42.10;;;;;;6099194;28;83307;-58
2022/09/02 12:22:12;;;;;;;1.52;1.08;;;23.50;41.50;;;;;;6103048;28;81329;-58
2022/09/02 12:25:13;;;;;;;1.10;1.00;;;23.50;41.10;;;;;;6129609;28;81187;-59
2022/09/02 12:28:13;;;;;;;4.07;1.00;;;23.50;41.30;;;;;;6128098;28;81262;-58
2022/09/02 12:31:15;;;;;;;2.35;1.55;;;23.40;40.60;;;;;;6123389;28;80540;-58
2022/09/02 12:34:15;;;;;;;4.45;1.48;;;23.50;41.50;;;;;;6116967;28;83272;-58
2022/09/02 12:37:16;;;;;;;1.20;1.10;;;23.60;41.70;;;;;;6113017;28;83900;-58
2022/09/02 12:40:16;;;;;;;0.95;0.90;;;23.60;41.40;;;;;;6116221;28;80314;-58
2022/09/02 12:43:17;;;;;;;2.28;1.20;;;23.60;41.10;;;;;;6114596;28;83486;-58
2022/09/02 12:46:17;;;;;;;4.65;1.25;;;23.50;41.60;;;;;;6122872;28;86098;-58
2022/09/02 12:49:18;;;;;;;4.10;1.20;;;23.60;42.00;;;;;;6120274;28;81905;-58
2022/09/02 12:52:19;;;;;;;8.85;1.60;;;23.60;41.60;;;;;;6117030;28;83075;-58
2022/09/02 12:55:19;;;;;;;2.88;1.08;;;23.50;41.70;;;;;;6121116;28;82960;-58
2022/09/02 12:58:20;;;;;;;2.30;1.10;;;23.60;41.90;;;;;;6117271;28;80399;-57
2022/09/02 13:01:20;;;;;;;5.10;1.42;;;23.50;41.90;;;;;;6112551;28;83361;-58
2022/09/02 13:04:21;;;;;;;8.80;2.28;;;23.40;42.80;;;;;;6120476;28;81852;-57
2022/09/02 13:07:21;;;;;;;11.52;1.70;;;23.50;42.60;;;;;;6123908;28;83751;-58
2022/09/02 13:10:22;;;;;;;2.63;1.75;;;23.30;42.20;;;;;;6124829;28;80756;-58
2022/09/02 13:13:22;;;;;;;5.25;1.77;;;23.50;42.80;;;;;;6117291;28;82011;-58
2022/09/02 13:16:23;;;;;;;2.38;1.10;;;23.60;42.20;;;;;;6121953;28;80363;-57
2022/09/02 13:19:23;;;;;;;2.08;1.20;;;23.60;41.50;;;;;;6123855;28;80282;-58
2022/09/02 13:22:24;;;;;;;1.92;1.00;;;23.60;41.80;;;;;;6122177;28;80373;-57
2022/09/02 13:25:24;;;;;;;2.47;1.17;;;23.60;41.90;;;;;;6123807;28;80050;-58
2022/09/02 13:28:25;;;;;;;3.65;1.70;;;23.50;42.10;;;;;;6122601;28;83225;-57
2022/09/02 13:31:26;;;;;;;3.25;1.48;;;23.50;42.20;;;;;;6124962;28;80375;-59
2022/09/02 13:34:26;;;;;;;3.28;1.40;;;23.50;42.20;;;;;;6109468;28;80415;-59
2022/09/02 13:37:27;;;;;;;4.63;1.70;;;23.40;42.40;;;;;;6090417;28;80614;-58
2022/09/02 13:40:28;;;;;;;3.08;1.60;;;23.30;43.20;;;;;;6103460;28;82112;-58
2022/09/02 13:43:29;;;;;;;3.25;2.10;;;23.20;43.60;;;;;;6107644;28;86157;-57
2022/09/02 13:46:29;;;;;;;5.93;2.00;;;23.40;44.10;;;;;;6126510;28;87787;-58
2022/09/02 13:49:30;;;;;;;5.80;1.58;;;23.50;44.30;;;;;;6125002;28;80949;-59
2022/09/02 13:52:30;;;;;;;3.92;1.35;;;23.70;43.80;;;;;;6128605;28;81100;-59
2022/09/02 13:55:31;;;;;;;1.40;1.30;;;23.70;43.60;;;;;;6129025;28;81036;-60
2022/09/02 13:58:31;;;;;;;1.42;1.33;;;23.70;43.60;;;;;;6137355;28;81005;-59
2022/09/02 14:01:32;;;;;;;13.80;1.92;;;23.70;43.90;;;;;;6125847;28;82890;-60
2022/09/02 14:04:35;;;;;;;3.38;1.10;;;23.80;44.80;;;;;;6114618;28;81311;-59
2022/09/02 14:07:35;;;;;;;1.65;1.10;;;23.80;44.00;;;;;;6110694;28;80897;-59
2022/09/02 14:10:37;;;;;;;7.40;1.58;;;23.80;43.60;;;;;;6125606;28;83190;-58
2022/09/02 14:13:38;;;;;;;1.42;0.95;;;23.80;43.30;;;;;;6129605;28;87034;-59
2022/09/02 14:16:38;;;;;;;1.38;1.13;;;23.70;43.50;;;;;;6138231;28;81639;-59
2022/09/02 14:19:39;;;;;;;1.67;1.30;;;23.70;42.60;;;;;;6125881;28;81573;-59
2022/09/02 14:22:39;;;;;;;1.85;1.40;;;23.60;43.30;;;;;;6133476;28;80651;-60
2022/09/02 14:25:40;;;;;;;1.80;1.20;;;23.60;43.20;;;;;;6129329;28;80505;-58
2022/09/02 14:28:40;;;;;;;3.15;1.70;;;23.60;43.00;;;;;;6117491;28;81304;-59
2022/09/02 14:31:41;;;;;;;4.85;1.65;;;23.60;43.30;;;;;;6110642;28;80663;-58
2022/09/02 14:34:41;;;;;;;1.60;1.10;;;23.50;42.90;;;;;;6097812;28;83386;-58
2022/09/02 14:37:42;;;;;;;2.03;1.40;;;23.50;42.70;;;;;;6116618;28;80663;-58
2022/09/02 14:40:43;;;;;;;4.43;1.58;;;23.50;43.70;;;;;;6113922;28;81256;-58
2022/09/02 14:43:43;;;;;;;5.68;2.17;;;23.60;43.30;;;;;;6083083;28;82542;-60
2022/09/02 14:46:44;;;;;;;3.80;1.90;;;23.60;43.20;;;;;;6076896;28;81591;-60
2022/09/02 14:49:44;;;;;;;3.15;1.20;;;23.60;43.00;;;;;;6107296;28;82494;-61
2022/09/02 14:52:45;;;;;;;1.67;1.20;;;23.60;42.70;;;;;;6126668;28;82178;-62
2022/09/02 14:55:45;;;;;;;6.15;1.42;;;23.60;42.30;;;;;;6129816;28;87284;-62
2022/09/02 14:58:46;;;;;;;3.40;1.20;;;23.60;42.40;;;;;;6117590;28;80630;-62
2022/09/02 15:01:46;;;;;;;1.45;1.27;;;23.60;42.80;;;;;;6120966;28;83911;-60
2022/09/02 15:04:47;;;;;;;4.55;1.40;;;23.60;43.00;;;;;;6129553;28;80660;-60
2022/09/02 15:07:48;;;;;;;2.08;1.15;;;23.60;43.30;;;;;;6130267;28;81279;-59
2022/09/02 15:10:49;;;;;;;6.95;1.30;;;23.60;43.30;;;;;;6134105;28;80925;-60
2022/09/02 15:13:49;;;;;;;1.90;1.45;;;23.60;43.70;;;;;;6129087;28;83882;-62
2022/09/02 15:16:50;;;;;;;4.40;1.40;;;23.60;43.80;;;;;;6135690;28;80430;-62
2022/09/02 15:19:50;;;;;;;3.13;1.65;;;23.70;44.10;;;;;;6140339;28;80724;-62
2022/09/02 15:22:52;;;;;;;3.50;1.25;;;23.60;44.20;;;;;;6146531;28;80158;-62
2022/09/02 15:25:52;;;;;;;2.45;1.30;;;23.70;44.20;;;;;;6154149;28;82467;-66
2022/09/02 15:28:53;;;;;;;2.80;1.40;;;23.70;44.50;;;;;;6151293;28;81616;-64
2022/09/02 15:31:53;;;;;;;1.35;1.20;;;23.70;44.50;;;;;;6142425;28;82785;-61
2022/09/02 15:34:53;;;;;;;2.75;1.13;;;23.60;44.50;;;;;;6157584;28;80874;-64
2022/09/02 15:37:54;;;;;;;5.43;1.40;;;23.70;44.60;;;;;;6154774;28;81126;-58
2022/09/02 15:40:55;;;;;;;2.97;1.55;;;23.70;44.90;;;;;;6146504;28;88306;-57